Time;durP1;ratioP1;P1;durP2;ratioP2;P2;SDS_P1;SDS_P2;PMS_P1;PMS_P2;Temp;Humidity;BMP_temperature;BMP_pressure;BME280_temperature;BME280_humidity;BME280_pressure;Samples;Min_cycle;Max_cycle;Signal;HPM_P1;HPM_P2
2022/08/22 00:02:33;;;;;;;1.52;1.38;;;13.90;99.90;;;;;;5036891;28;20867;-59
2022/08/22 00:05:09;;;;;;;3.60;1.55;;;13.90;99.90;;;;;;5037041;28;20045;-57
2022/08/22 00:08:02;;;;;;;2.35;1.70;;;13.90;99.90;;;;;;5036838;28;20110;-58
2022/08/22 00:10:52;;;;;;;1.67;1.17;;;13.90;99.90;;;;;;5037032;28;20091;-58
2022/08/22 00:13:54;;;;;;;2.33;2.05;;;13.80;99.90;;;;;;5032875;28;20040;-57
2022/08/22 00:16:31;;;;;;;2.38;1.77;;;13.80;99.90;;;;;;5017417;28;20124;-58
2022/08/22 00:19:24;;;;;;;1.77;1.40;;;13.70;99.90;;;;;;5016508;28;20041;-57
2022/08/22 00:22:27;;;;;;;1.98;1.60;;;13.70;99.90;;;;;;5016928;28;20041;-58
2022/08/22 00:25:09;;;;;;;1.92;1.50;;;13.60;99.90;;;;;;5015959;28;20115;-58
2022/08/22 00:28:01;;;;;;;2.03;1.83;;;13.60;99.90;;;;;;5016984;28;20668;-56
2022/08/22 00:30:30;;;;;;;2.15;1.45;;;13.50;99.90;;;;;;5015776;28;20041;-57
2022/08/22 00:33:04;;;;;;;5.45;1.70;;;13.50;99.90;;;;;;5024473;28;20036;-57
2022/08/22 00:35:36;;;;;;;5.88;2.25;;;13.50;99.90;;;;;;5035413;28;20029;-57
2022/08/22 00:38:29;;;;;;;3.50;1.63;;;13.50;99.90;;;;;;5037191;28;20037;-57
2022/08/22 00:41:30;;;;;;;2.28;1.50;;;13.40;99.90;;;;;;5036333;28;20041;-58
2022/08/22 00:43:59;;;;;;;1.50;1.40;;;13.40;99.90;;;;;;5016721;28;20037;-57
2022/08/22 00:46:29;;;;;;;2.00;1.50;;;13.40;99.90;;;;;;5016306;28;20119;-57
2022/08/22 00:49:10;;;;;;;2.45;1.75;;;13.40;99.90;;;;;;5016763;28;20128;-56
2022/08/22 00:52:11;;;;;;;2.42;2.03;;;13.40;99.90;;;;;;5016488;28;20053;-58
2022/08/22 00:54:47;;;;;;;4.72;1.70;;;13.40;99.90;;;;;;5016404;28;20065;-57
2022/08/22 00:57:55;;;;;;;2.95;1.60;;;13.40;99.90;;;;;;5016542;28;20131;-58
2022/08/22 01:00:30;;;;;;;3.67;2.22;;;13.40;99.90;;;;;;4974500;28;20042;-57
2022/08/22 01:03:22;;;;;;;3.78;2.17;;;13.30;99.90;;;;;;4973779;28;20053;-58
2022/08/22 01:06:22;;;;;;;2.97;1.90;;;13.30;99.90;;;;;;5005246;28;20085;-56
2022/08/22 01:08:49;;;;;;;1.70;1.60;;;13.30;99.90;;;;;;5016748;28;20574;-57
2022/08/22 01:11:37;;;;;;;2.10;1.67;;;13.30;99.90;;;;;;5030770;28;20091;-57
2022/08/22 01:14:50;;;;;;;3.25;1.75;;;13.30;99.90;;;;;;5018712;28;20739;-57
2022/08/22 01:17:40;;;;;;;1.88;1.70;;;13.30;99.90;;;;;;5017196;28;20046;-57
2022/08/22 01:20:16;;;;;;;4.35;2.10;;;13.30;99.90;;;;;;5016186;28;20092;-58
2022/08/22 01:23:01;;;;;;;4.60;2.40;;;13.30;99.90;;;;;;5016629;28;20123;-57
2022/08/22 01:25:50;;;;;;;1.95;1.80;;;13.30;99.90;;;;;;5015828;28;20123;-58
2022/08/22 01:28:38;;;;;;;2.40;1.80;;;13.20;99.90;;;;;;5020785;28;20045;-58
2022/08/22 01:31:44;;;;;;;2.47;1.85;;;13.20;99.90;;;;;;5020973;28;20464;-58
2022/08/22 01:34:49;;;;;;;1.55;1.45;;;13.10;99.90;;;;;;5026560;28;20053;-57
2022/08/22 01:37:25;;;;;;;4.93;2.17;;;13.10;99.90;;;;;;5039882;28;20045;-57
2022/08/22 01:40:14;;;;;;;2.20;1.65;;;13.10;99.90;;;;;;5040052;28;20048;-56
2022/08/22 01:42:59;;;;;;;1.63;1.52;;;13.10;99.90;;;;;;5033388;28;20048;-56
2022/08/22 01:45:29;;;;;;;1.77;1.67;;;13.10;99.90;;;;;;5040194;28;20563;-57
2022/08/22 01:48:05;;;;;;;3.88;1.90;;;13.10;99.90;;;;;;5039111;28;20069;-56
2022/08/22 01:50:45;;;;;;;;;;;13.00;99.90;;;;;;5040572;28;20057;-58
2022/08/22 01:53:38;;;;;;;2.13;1.90;;;13.00;99.90;;;;;;5038280;28;19998;-57
2022/08/22 01:56:19;;;;;;;6.68;2.38;;;13.00;99.90;;;;;;5039488;28;20115;-56
2022/08/22 01:59:09;;;;;;;3.63;1.70;;;13.00;99.90;;;;;;5039587;28;20049;-55
2022/08/22 02:01:37;;;;;;;4.00;2.03;;;13.00;99.90;;;;;;5039569;28;20047;-56
2022/08/22 02:04:33;;;;;;;3.60;2.08;;;13.10;99.90;;;;;;5039036;28;20099;-57
2022/08/22 02:07:13;;;;;;;2.47;2.05;;;13.10;99.90;;;;;;5037375;28;20084;-57
2022/08/22 02:10:10;;;;;;;2.08;1.70;;;13.10;99.90;;;;;;5038518;28;20055;-56
2022/08/22 02:12:40;;;;;;;4.07;2.30;;;13.10;99.90;;;;;;5038882;28;20060;-56
2022/08/22 02:15:13;;;;;;;3.17;2.28;;;13.10;99.90;;;;;;5038065;28;20041;-57
2022/08/22 02:18:05;;;;;;;3.45;2.03;;;13.00;99.90;;;;;;5038896;28;20555;-57
2022/08/22 02:20:38;;;;;;;2.95;2.45;;;13.00;99.90;;;;;;5039457;28;20044;-58
2022/08/22 02:23:18;;;;;;;4.75;2.65;;;13.00;99.90;;;;;;5038297;28;20067;-56
2022/08/22 02:25:55;;;;;;;2.28;2.05;;;12.90;99.90;;;;;;5039486;28;20052;-57
2022/08/22 02:28:29;;;;;;;4.27;2.43;;;12.90;99.90;;;;;;5038638;28;20060;-57
2022/08/22 02:31:15;;;;;;;5.75;2.42;;;12.90;99.90;;;;;;5039247;28;20447;-57
2022/08/22 02:33:51;;;;;;;2.67;2.28;;;12.90;99.90;;;;;;5025319;28;20432;-58
2022/08/22 02:36:47;;;;;;;3.75;2.15;;;12.90;99.90;;;;;;5033303;28;20037;-56
2022/08/22 02:39:55;;;;;;;3.35;2.33;;;12.90;99.90;;;;;;5018799;28;20057;-57
2022/08/22 02:42:31;;;;;;;2.85;1.80;;;12.90;99.90;;;;;;5036315;28;20045;-56
2022/08/22 02:45:29;;;;;;;2.75;2.17;;;12.90;99.90;;;;;;5037833;28;20103;-57
2022/08/22 02:48:10;;;;;;;3.55;2.05;;;12.90;99.90;;;;;;5038667;28;20052;-56
2022/08/22 02:50:46;;;;;;;2.28;2.05;;;12.80;99.90;;;;;;5038653;28;21102;-56
2022/08/22 02:53:29;;;;;;;4.88;2.72;;;12.80;99.90;;;;;;5038647;28;20671;-56
2022/08/22 02:56:13;;;;;;;2.95;2.38;;;12.80;99.90;;;;;;5037581;28;20041;-56
2022/08/22 02:58:52;;;;;;;6.93;2.55;;;12.80;99.90;;;;;;5037363;28;20122;-57
2022/08/22 03:01:28;;;;;;;7.03;2.75;;;12.80;99.90;;;;;;5026211;28;20056;-57
2022/08/22 03:04:39;;;;;;;4.22;2.53;;;12.80;99.90;;;;;;5034080;28;20045;-56
2022/08/22 03:07:09;;;;;;;3.35;2.22;;;12.80;99.90;;;;;;4994917;28;20861;-57
2022/08/22 03:09:45;;;;;;;3.38;1.60;;;12.70;99.90;;;;;;4995579;28;20069;-56
2022/08/22 03:12:53;;;;;;;3.67;2.40;;;12.80;99.90;;;;;;5012304;28;20091;-57
2022/08/22 03:15:31;;;;;;;2.80;2.00;;;12.70;99.90;;;;;;5032398;28;20077;-57
2022/08/22 03:18:17;;;;;;;5.40;2.10;;;12.70;99.90;;;;;;5037431;28;20048;-56
2022/08/22 03:21:12;;;;;;;2.20;2.00;;;12.70;99.90;;;;;;5038696;28;20053;-55
2022/08/22 03:23:45;;;;;;;11.20;2.63;;;12.70;99.90;;;;;;5037700;28;20272;-57
2022/08/22 03:26:24;;;;;;;5.50;2.40;;;12.70;99.90;;;;;;5037806;28;20064;-57
2022/08/22 03:28:58;;;;;;;2.78;2.28;;;12.70;99.90;;;;;;5038214;28;20049;-58
2022/08/22 03:31:28;;;;;;;4.30;2.30;;;12.70;99.90;;;;;;5037603;28;20059;-57
2022/08/22 03:34:15;;;;;;;2.40;2.00;;;12.70;99.90;;;;;;5030224;28;20195;-56
2022/08/22 03:36:56;;;;;;;2.80;2.17;;;12.70;99.90;;;;;;5027372;28;20040;-56
2022/08/22 03:39:57;;;;;;;2.10;1.65;;;12.70;99.90;;;;;;5037566;28;20055;-57
2022/08/22 03:42:43;;;;;;;2.47;2.28;;;12.70;99.90;;;;;;5036788;28;20049;-57
2022/08/22 03:45:37;;;;;;;4.47;2.17;;;12.70;99.90;;;;;;5037801;28;20041;-56
2022/08/22 03:48:31;;;;;;;2.25;1.90;;;12.70;99.90;;;;;;5036487;28;20792;-57
2022/08/22 03:51:04;;;;;;;2.35;1.98;;;12.70;99.90;;;;;;5037703;28;20056;-55
2022/08/22 03:53:44;;;;;;;2.90;2.13;;;12.60;99.90;;;;;;5036121;28;20060;-57
2022/08/22 03:56:50;;;;;;;4.32;2.33;;;12.60;99.90;;;;;;5037390;28;20045;-57
2022/08/22 03:59:38;;;;;;;5.40;2.20;;;12.60;99.90;;;;;;5036891;28;20059;-57
2022/08/22 04:02:36;;;;;;;4.88;2.10;;;12.50;99.90;;;;;;5037319;28;20127;-56
2022/08/22 04:05:31;;;;;;;4.68;2.58;;;12.50;99.90;;;;;;5036760;28;20040;-57
2022/08/22 04:08:12;;;;;;;4.00;3.42;;;12.50;99.90;;;;;;5036257;28;20075;-55
2022/08/22 04:11:00;;;;;;;3.58;2.60;;;12.50;99.90;;;;;;5036910;28;20563;-55
2022/08/22 04:13:46;;;;;;;5.72;2.60;;;12.50;99.90;;;;;;5036013;28;20059;-54
2022/08/22 04:16:28;;;;;;;2.72;2.28;;;12.50;99.90;;;;;;5029286;28;20648;-54
2022/08/22 04:19:06;;;;;;;4.10;2.22;;;12.50;99.90;;;;;;5037214;28;20055;-52
2022/08/22 04:21:55;;;;;;;2.90;2.17;;;12.50;99.90;;;;;;5036610;28;20249;-55
2022/08/22 04:24:39;;;;;;;4.45;2.58;;;12.50;99.90;;;;;;5036335;28;20041;-54
2022/08/22 04:27:14;;;;;;;3.20;2.60;;;12.50;99.90;;;;;;5036286;28;20056;-54
2022/08/22 04:29:48;;;;;;;18.20;2.97;;;12.60;99.90;;;;;;5037172;28;20727;-51
2022/08/22 04:32:43;;;;;;;2.97;2.67;;;12.70;99.90;;;;;;5035047;28;20733;-56
2022/08/22 04:35:26;;;;;;;2.47;1.80;;;12.90;99.90;;;;;;5025981;28;20111;-56
2022/08/22 04:38:05;;;;;;;3.05;2.67;;;13.00;99.90;;;;;;5029649;28;20029;-55
2022/08/22 04:40:49;;;;;;;4.03;2.28;;;12.90;99.90;;;;;;5036502;28;20776;-53
2022/08/22 04:43:40;;;;;;;6.38;1.92;;;12.90;99.90;;;;;;5036246;28;20040;-55
2022/08/22 04:46:18;;;;;;;3.28;2.35;;;12.90;99.90;;;;;;5035270;28;20103;-54
2022/08/22 04:49:34;;;;;;;2.70;2.10;;;12.90;99.90;;;;;;5035306;28;20053;-53
2022/08/22 04:52:26;;;;;;;3.58;2.28;;;12.80;99.90;;;;;;5025164;28;20061;-57
2022/08/22 04:55:20;;;;;;;4.18;2.22;;;12.90;99.90;;;;;;5035643;28;20060;-55
2022/08/22 04:58:21;;;;;;;3.25;2.30;;;12.90;99.90;;;;;;5035845;28;20049;-55
2022/08/22 05:00:57;;;;;;;3.08;2.13;;;13.00;99.90;;;;;;5037399;28;20049;-55
2022/08/22 05:03:27;;;;;;;6.57;2.10;;;13.00;99.90;;;;;;5022856;28;20049;-53
2022/08/22 05:05:58;;;;;;;7.72;2.80;;;13.00;99.90;;;;;;5038371;28;20056;-53
2022/08/22 05:08:29;;;;;;;3.55;2.40;;;13.10;99.90;;;;;;5040442;28;20083;-51
2022/08/22 05:10:58;;;;;;;2.50;2.20;;;13.10;99.90;;;;;;5038077;28;20099;-53
2022/08/22 05:13:38;;;;;;;3.58;2.42;;;13.20;99.90;;;;;;5038796;28;20052;-55
2022/08/22 05:16:11;;;;;;;4.67;2.00;;;13.20;99.90;;;;;;5028096;28;20807;-54
2022/08/22 05:18:47;;;;;;;3.42;2.45;;;13.30;99.90;;;;;;5038438;28;20661;-55
2022/08/22 05:21:19;;;;;;;2.72;2.00;;;13.30;99.90;;;;;;5040409;28;20470;-55
2022/08/22 05:24:13;;;;;;;5.47;2.00;;;13.40;99.90;;;;;;5037856;28;20049;-56
2022/08/22 05:26:45;;;;;;;4.82;2.70;;;13.50;99.90;;;;;;5039623;28;20052;-53
2022/08/22 05:29:17;;;;;;;4.25;2.45;;;13.50;99.90;;;;;;5039658;28;20064;-54
2022/08/22 05:32:11;;;;;;;3.97;2.40;;;13.60;99.90;;;;;;5039984;28;20053;-55
2022/08/22 05:34:40;;;;;;;3.65;2.75;;;13.60;99.90;;;;;;5019100;28;20336;-55
2022/08/22 05:37:19;;;;;;;3.97;2.47;;;13.70;99.90;;;;;;5021572;28;20095;-56
2022/08/22 05:39:52;;;;;;;5.10;2.72;;;13.70;99.90;;;;;;5038531;28;20045;-56
2022/08/22 05:42:30;;;;;;;3.03;2.25;;;13.80;99.90;;;;;;5038399;28;20037;-55
2022/08/22 05:45:01;;;;;;;2.78;2.47;;;13.90;99.90;;;;;;5037911;28;20045;-53
2022/08/22 05:47:38;;;;;;;3.55;2.22;;;14.00;99.90;;;;;;5039574;28;20127;-54
2022/08/22 05:50:17;;;;;;;2.92;2.53;;;14.10;99.90;;;;;;5037949;28;20137;-55
2022/08/22 05:53:05;;;;;;;5.38;2.78;;;14.20;99.90;;;;;;5039746;28;20647;-56
2022/08/22 05:55:36;;;;;;;;;;;14.20;99.90;;;;;;5035724;28;20519;-56
2022/08/22 05:58:32;;;;;;;5.00;4.22;;;14.30;99.90;;;;;;5038201;28;19925;-55
2022/08/22 06:01:38;;;;;;;4.53;2.70;;;14.40;99.90;;;;;;5038838;28;20033;-56
2022/08/22 06:04:21;;;;;;;18.90;5.43;;;14.50;99.90;;;;;;5039300;28;20048;-55
2022/08/22 06:07:17;;;;;;;5.65;2.92;;;14.60;99.90;;;;;;5039231;28;20106;-55
2022/08/22 06:09:47;;;;;;;18.02;5.00;;;14.70;99.90;;;;;;5039759;28;20049;-57
2022/08/22 06:12:20;;;;;;;13.38;3.28;;;14.80;99.90;;;;;;5038615;28;20051;-56
2022/08/22 06:15:10;;;;;;;19.85;4.88;;;14.90;99.90;;;;;;5026253;28;20511;-54
2022/08/22 06:17:45;;;;;;;10.05;3.30;;;15.00;99.90;;;;;;5034343;28;20142;-57
2022/08/22 06:20:19;;;;;;;10.02;4.47;;;15.00;99.90;;;;;;5039512;28;20044;-56
2022/08/22 06:22:53;;;;;;;7.07;2.53;;;15.10;99.90;;;;;;5037729;28;20048;-55
2022/08/22 06:25:40;;;;;;;5.85;2.65;;;15.20;99.90;;;;;;5038786;28;20041;-57
2022/08/22 06:28:11;;;;;;;6.57;2.80;;;15.30;99.90;;;;;;5039403;28;20470;-57
2022/08/22 06:30:39;;;;;;;4.97;2.92;;;15.40;99.90;;;;;;5038431;28;20048;-56
2022/08/22 06:33:10;;;;;;;3.60;1.90;;;15.50;99.90;;;;;;5039069;28;20079;-56
2022/08/22 06:38:55;;;;;;;5.90;2.58;;;15.60;99.90;;;;;;5017189;28;20045;-56
2022/08/22 06:41:25;;;;;;;6.13;2.80;;;15.80;99.90;;;;;;5023062;28;20125;-55
2022/08/22 06:43:54;;;;;;;4.95;2.60;;;15.90;99.90;;;;;;5038880;28;20500;-54
2022/08/22 06:46:24;;;;;;;3.03;2.17;;;16.00;99.90;;;;;;5027446;28;20030;-53
2022/08/22 06:48:54;;;;;;;2.42;1.75;;;16.10;99.90;;;;;;5024498;28;20422;-56
2022/08/22 06:51:24;;;;;;;9.38;3.25;;;16.30;99.90;;;;;;5019590;28;20056;-55
2022/08/22 06:53:58;;;;;;;2.65;2.15;;;16.40;99.90;;;;;;5018801;28;20068;-56
2022/08/22 06:56:30;;;;;;;3.97;2.40;;;16.50;99.90;;;;;;5019111;28;20056;-59
2022/08/22 06:59:01;;;;;;;2.38;2.17;;;16.60;99.90;;;;;;5019286;28;20045;-61
2022/08/22 07:01:34;;;;;;;2.75;2.42;;;16.70;99.90;;;;;;5019316;28;20660;-59
2022/08/22 07:04:09;;;;;;;4.00;2.53;;;16.80;99.90;;;;;;5018788;28;20084;-60
2022/08/22 07:06:43;;;;;;;2.85;2.00;;;16.90;99.90;;;;;;5030635;28;20118;-55
2022/08/22 07:09:26;;;;;;;4.25;2.35;;;17.00;99.90;;;;;;5038699;28;20063;-55
2022/08/22 07:11:56;;;;;;;5.97;2.58;;;17.10;99.90;;;;;;5038336;28;20584;-55
2022/08/22 07:14:38;;;;;;;5.55;2.40;;;17.30;99.90;;;;;;5036529;28;20040;-54
2022/08/22 07:17:09;;;;;;;6.32;2.70;;;17.40;99.90;;;;;;5037694;28;20099;-55
2022/08/22 07:19:39;;;;;;;2.92;2.13;;;17.50;99.90;;;;;;5038269;28;20055;-55
2022/08/22 07:22:12;;;;;;;5.07;2.22;;;17.60;99.90;;;;;;5038845;28;20811;-57
2022/08/22 07:24:49;;;;;;;4.50;2.40;;;17.60;99.90;;;;;;5038263;28;20372;-63
2022/08/22 07:27:36;;;;;;;3.00;2.55;;;17.70;99.90;;;;;;5038928;28;20052;-56
2022/08/22 07:30:12;;;;;;;5.47;2.30;;;17.90;99.90;;;;;;5037967;28;20041;-56
2022/08/22 07:33:18;;;;;;;5.63;2.42;;;18.00;99.90;;;;;;5038849;28;20143;-55
2022/08/22 07:36:05;;;;;;;8.95;2.97;;;18.10;99.90;;;;;;5029427;28;20710;-55
2022/08/22 07:38:42;;;;;;;7.25;2.78;;;18.30;99.90;;;;;;5017119;28;20044;-56
2022/08/22 07:41:18;;;;;;;5.13;2.72;;;18.50;99.90;;;;;;5023791;28;20052;-56
2022/08/22 07:43:50;;;;;;;6.37;2.87;;;18.70;99.90;;;;;;5019027;28;20110;-59
2022/08/22 07:46:26;;;;;;;240.45;20.40;;;18.80;99.90;;;;;;5018703;28;20467;-55
2022/08/22 07:48:59;;;;;;;44.05;6.28;;;19.00;99.90;;;;;;5017523;28;20045;-57
2022/08/22 07:51:45;;;;;;;64.45;8.48;;;19.20;99.90;;;;;;5031905;28;20060;-55
2022/08/22 07:54:15;;;;;;;19.52;5.28;;;19.80;99.90;;;;;;5036897;28;20060;-56
2022/08/22 07:56:52;;;;;;;17.10;4.47;;;20.70;99.90;;;;;;5035904;28;20056;-55
2022/08/22 07:59:21;;;;;;;9.90;2.93;;;21.50;99.90;;;;;;5035498;28;20392;-56
2022/08/22 08:01:52;;;;;;;58.58;8.52;;;22.20;99.90;;;;;;5035970;28;20045;-54
2022/08/22 08:04:28;;;;;;;3.22;2.20;;;22.70;99.90;;;;;;5034946;28;20043;-54
2022/08/22 08:06:58;;;;;;;11.63;2.60;;;23.10;99.90;;;;;;5035739;28;20049;-63
2022/08/22 08:09:32;;;;;;;1185.28;153.90;;;23.50;99.90;;;;;;5035289;28;20106;-62
2022/08/22 08:12:02;;;;;;;315.27;32.72;;;23.90;99.90;;;;;;5035028;28;20407;-63
2022/08/22 08:14:30;;;;;;;7.22;2.55;;;24.20;99.90;;;;;;5035354;28;20036;-62
2022/08/22 08:17:01;;;;;;;11.95;2.15;;;24.40;99.90;;;;;;5034210;28;20052;-62
2022/08/22 08:19:32;;;;;;;3.08;2.28;;;24.80;98.30;;;;;;5035690;28;20722;-61
2022/08/22 08:21:59;;;;;;;65.20;7.82;;;25.10;91.90;;;;;;5032325;28;20063;-61
2022/08/22 08:24:38;;;;;;;17.70;3.50;;;25.40;91.80;;;;;;5035051;28;20041;-62
2022/08/22 08:30:10;;;;;;;42.65;3.83;;;25.80;77.30;;;;;;5015700;28;20056;-62
2022/08/22 08:32:43;;;;;;;5.85;3.03;;;25.90;84.10;;;;;;5015166;28;20303;-61
2022/08/22 08:35:22;;;;;;;4.13;2.13;;;26.00;79.50;;;;;;5013293;28;20133;-64
2022/08/22 08:38:11;;;;;;;7.03;2.38;;;25.80;77.10;;;;;;5014724;28;20052;-66
2022/08/22 08:40:59;;;;;;;6.23;2.50;;;25.80;78.50;;;;;;5031477;28;20059;-63
2022/08/22 08:43:53;;;;;;;5.15;2.10;;;26.00;75.80;;;;;;5014243;28;20531;-63
2022/08/22 08:47:02;;;;;;;5.90;2.40;;;26.10;81.90;;;;;;5013635;28;20064;-64
2022/08/22 08:49:56;;;;;;;5.82;2.42;;;26.30;79.40;;;;;;4998851;28;20065;-66
2022/08/22 08:52:39;;;;;;;5.32;2.08;;;26.50;73.50;;;;;;5033276;28;20519;-63
2022/08/22 08:55:23;;;;;;;9.50;2.53;;;26.60;72.90;;;;;;5034722;28;20040;-64
2022/08/22 08:58:01;;;;;;;6.10;2.40;;;26.90;69.90;;;;;;5034920;28;20059;-62
2022/08/22 09:00:50;;;;;;;2.35;2.10;;;26.90;66.20;;;;;;5034399;28;20056;-61
2022/08/22 09:03:46;;;;;;;389.55;40.35;;;26.90;66.80;;;;;;5035178;28;20048;-67
2022/08/22 09:06:29;;;;;;;275.33;27.13;;;27.10;66.90;;;;;;5032121;28;20541;-61
2022/08/22 09:09:24;;;;;;;411.30;43.05;;;27.30;67.40;;;;;;5034474;28;20045;-62
2022/08/22 09:12:19;;;;;;;975.25;104.28;;;27.30;63.10;;;;;;5031579;28;20056;-61
2022/08/22 09:15:05;;;;;;;9.82;3.28;;;27.40;65.00;;;;;;5024091;28;20128;-62
2022/08/22 09:18:03;;;;;;;4.72;2.38;;;27.50;63.60;;;;;;5018577;28;20045;-62
2022/08/22 09:20:45;;;;;;;7.57;2.58;;;27.50;65.90;;;;;;5016926;28;20482;-62
2022/08/22 09:23:24;;;;;;;2.95;2.55;;;27.70;69.50;;;;;;5016651;28;20040;-62
2022/08/22 09:26:14;;;;;;;4.85;2.58;;;27.80;66.80;;;;;;5034677;28;20037;-64
2022/08/22 09:29:12;;;;;;;3.22;2.40;;;27.80;66.50;;;;;;5018417;28;20073;-62
2022/08/22 09:32:05;;;;;;;6.05;2.80;;;27.80;64.50;;;;;;5033864;28;20722;-62
2022/08/22 09:34:57;;;;;;;7.00;2.72;;;27.80;65.10;;;;;;5032834;28;21471;-63
2022/08/22 09:37:48;;;;;;;6.30;2.78;;;27.80;66.40;;;;;;5023398;28;20038;-64
2022/08/22 09:40:28;;;;;;;6.38;2.75;;;27.90;62.00;;;;;;5013819;28;20084;-64
2022/08/22 09:43:08;;;;;;;3.80;2.92;;;27.90;59.20;;;;;;5029577;28;20055;-64
2022/08/22 09:45:40;;;;;;;8.20;3.08;;;27.90;59.20;;;;;;5035005;28;20088;-64
2022/08/22 09:48:12;;;;;;;9.30;3.08;;;27.90;57.70;;;;;;5037569;28;20474;-62
2022/08/22 09:50:50;;;;;;;3.60;2.35;;;28.00;58.60;;;;;;5037284;28;20430;-62
2022/08/22 09:53:49;;;;;;;3.85;2.80;;;28.00;58.00;;;;;;5037780;28;20069;-62
2022/08/22 09:56:32;;;;;;;13.68;5.95;;;28.00;58.00;;;;;;5037864;28;20755;-65
2022/08/22 09:59:12;;;;;;;11.13;5.22;;;28.20;57.20;;;;;;5037201;28;20052;-65
2022/08/22 10:02:25;;;;;;;8.30;6.30;;;28.30;58.20;;;;;;5038275;28;20444;-65
2022/08/22 10:05:24;;;;;;;5.47;2.95;;;28.40;59.10;;;;;;5025018;28;20080;-65
2022/08/22 10:08:12;;;;;;;4.82;2.65;;;28.40;59.90;;;;;;5023231;28;20088;-66
2022/08/22 10:10:53;;;;;;;4.80;3.10;;;28.60;58.70;;;;;;5039120;28;20048;-65
2022/08/22 10:13:58;;;;;;;6.38;2.67;;;28.70;56.40;;;;;;5036321;28;20067;-65
2022/08/22 10:16:39;;;;;;;4.80;3.00;;;28.70;56.50;;;;;;5017522;28;20071;-65
2022/08/22 10:19:16;;;;;;;4.32;2.85;;;28.60;56.80;;;;;;5028512;28;20041;-65
2022/08/22 10:22:19;;;;;;;4.28;2.85;;;28.70;57.80;;;;;;5038796;28;20044;-65
2022/08/22 10:24:58;;;;;;;3.88;2.58;;;28.70;56.00;;;;;;5021890;28;20044;-65
2022/08/22 10:27:55;;;;;;;4.10;2.20;;;28.70;54.70;;;;;;5024745;28;20052;-64
2022/08/22 10:30:48;;;;;;;3.70;2.60;;;28.70;56.10;;;;;;5017682;28;20052;-64
2022/08/22 10:33:24;;;;;;;2.90;2.30;;;28.60;53.30;;;;;;5013481;28;20120;-64
2022/08/22 10:36:14;;;;;;;3.47;2.40;;;28.60;55.10;;;;;;5017411;28;20052;-64
2022/08/22 10:38:49;;;;;;;2.73;2.43;;;28.50;54.80;;;;;;5016729;28;20560;-64
2022/08/22 10:41:35;;;;;;;3.65;2.42;;;28.40;54.30;;;;;;5018514;28;20144;-64
2022/08/22 10:44:15;;;;;;;5.60;2.33;;;28.40;54.90;;;;;;5016916;28;20586;-64
2022/08/22 10:46:57;;;;;;;3.83;2.70;;;28.40;55.80;;;;;;5016147;28;20045;-64
2022/08/22 10:49:44;;;;;;;5.10;2.50;;;28.30;55.90;;;;;;5017852;28;20551;-63
2022/08/22 10:52:31;;;;;;;2.75;2.35;;;28.30;53.50;;;;;;5016935;28;20060;-65
2022/08/22 10:55:19;;;;;;;5.85;2.38;;;28.30;54.50;;;;;;5017060;28;20196;-64
2022/08/22 10:58:08;;;;;;;4.28;2.60;;;28.30;51.90;;;;;;5016517;28;20054;-65
2022/08/22 11:00:52;;;;;;;3.90;2.72;;;28.40;54.70;;;;;;5017234;28;20041;-64
2022/08/22 11:03:24;;;;;;;3.53;2.58;;;28.50;53.90;;;;;;5016355;28;20149;-65
2022/08/22 11:06:12;;;;;;;4.35;2.13;;;28.60;52.70;;;;;;5016650;28;20045;-64
2022/08/22 11:08:42;;;;;;;7.30;2.60;;;28.60;52.10;;;;;;5017103;28;20041;-64
2022/08/22 11:11:12;;;;;;;6.28;2.45;;;28.60;52.30;;;;;;5029926;28;20060;-64
2022/08/22 11:14:05;;;;;;;4.93;3.15;;;28.60;50.60;;;;;;5034209;28;20072;-63
2022/08/22 11:17:08;;;;;;;4.95;2.03;;;28.60;50.00;;;;;;5016927;28;20488;-64
2022/08/22 11:20:45;;;;;;;7.00;2.33;;;28.60;50.30;;;;;;5029689;28;20037;-65
2022/08/22 11:23:15;;;;;;;4.07;2.38;;;28.50;48.40;;;;;;5013775;28;20061;-65
2022/08/22 11:25:55;;;;;;;4.07;2.20;;;28.50;50.20;;;;;;5034887;28;20041;-68
2022/08/22 11:28:33;;;;;;;5.30;2.22;;;28.50;49.20;;;;;;5015790;28;20057;-66
2022/08/22 11:31:20;;;;;;;4.40;2.20;;;28.60;48.90;;;;;;5016349;28;20045;-65
2022/08/22 11:34:02;;;;;;;;;;;28.60;50.50;;;;;;5017623;28;20569;-65
2022/08/22 11:36:53;;;;;;;3.40;2.40;;;28.60;50.00;;;;;;5018839;28;19925;-65
2022/08/22 11:39:34;;;;;;;55.38;5.78;;;28.50;48.60;;;;;;5036241;28;20826;-65
2022/08/22 11:42:06;;;;;;;5.95;2.55;;;28.40;48.60;;;;;;5021663;28;20037;-65
2022/08/22 11:44:50;;;;;;;15.27;2.78;;;28.50;49.70;;;;;;5015527;28;20033;-65
2022/08/22 11:47:21;;;;;;;10.73;3.20;;;28.50;48.70;;;;;;5015255;28;20141;-65
2022/08/22 11:50:13;;;;;;;4.13;2.60;;;28.40;49.30;;;;;;5014996;28;20133;-63
2022/08/22 11:52:58;;;;;;;;;;;28.40;51.10;;;;;;5016155;28;20049;-63
2022/08/22 11:55:52;;;;;;;3.20;1.95;;;28.40;50.90;;;;;;5016053;28;19960;-63
2022/08/22 11:58:51;;;;;;;5.93;2.50;;;28.50;50.30;;;;;;5034547;28;20045;-64
2022/08/22 12:01:21;;;;;;;12.85;3.15;;;28.50;50.60;;;;;;5032630;28;20061;-64
2022/08/22 12:04:15;;;;;;;19.63;4.00;;;28.60;50.20;;;;;;5033601;28;20053;-63
2022/08/22 12:07:12;;;;;;;4.35;2.25;;;28.70;49.50;;;;;;5034404;28;20051;-63
2022/08/22 12:09:59;;;;;;;8.55;4.30;;;28.80;48.20;;;;;;5015489;28;20037;-65
2022/08/22 12:12:38;;;;;;;12.57;4.63;;;28.80;49.30;;;;;;5036111;28;20083;-62
2022/08/22 12:15:19;;;;;;;6.97;2.58;;;28.80;49.60;;;;;;5019737;28;20704;-63
2022/08/22 12:18:08;;;;;;;11.45;3.70;;;28.90;49.60;;;;;;5015927;28;20049;-63
2022/08/22 12:20:54;;;;;;;5.18;2.63;;;29.00;50.90;;;;;;5013476;28;20050;-61
2022/08/22 12:23:45;;;;;;;7.68;2.88;;;29.00;50.50;;;;;;5015376;28;20430;-65
2022/08/22 12:26:32;;;;;;;4.88;2.40;;;28.80;50.00;;;;;;5017820;28;20419;-64
2022/08/22 12:29:06;;;;;;;6.50;2.80;;;28.70;49.80;;;;;;5035463;28;20552;-65
2022/08/22 12:32:03;;;;;;;3.92;2.20;;;28.70;51.40;;;;;;5032441;28;21818;-67
2022/08/22 12:34:36;;;;;;;4.45;2.78;;;28.80;50.90;;;;;;5034320;28;20041;-64
2022/08/22 12:37:24;;;;;;;3.83;3.00;;;28.90;52.80;;;;;;5025410;28;20493;-64
2022/08/22 12:40:02;;;;;;;3.75;2.95;;;29.10;51.50;;;;;;5014160;28;20045;-64
2022/08/22 12:42:48;;;;;;;2.80;2.45;;;29.20;50.60;;;;;;5019590;28;20037;-64
2022/08/22 12:45:32;;;;;;;3.33;2.80;;;29.20;50.10;;;;;;5033360;28;20048;-64
2022/08/22 12:48:28;;;;;;;4.53;3.08;;;29.20;49.90;;;;;;5033793;28;20874;-64
2022/08/22 12:51:21;;;;;;;2.75;2.25;;;29.10;49.40;;;;;;5035164;28;20051;-63
2022/08/22 12:54:31;;;;;;;8.88;2.95;;;29.00;49.40;;;;;;5033072;28;20379;-64
2022/08/22 12:57:16;;;;;;;5.50;2.70;;;28.90;49.50;;;;;;5017475;28;20686;-64
2022/08/22 13:00:19;;;;;;;4.10;2.42;;;29.00;49.70;;;;;;5032759;28;20559;-64
2022/08/22 13:02:53;;;;;;;4.95;2.80;;;29.10;48.90;;;;;;5031970;28;20049;-64
2022/08/22 13:05:27;;;;;;;8.02;2.63;;;29.10;47.40;;;;;;5033537;28;20582;-64
2022/08/22 13:08:01;;;;;;;2.65;2.42;;;29.00;48.20;;;;;;5035022;28;20041;-65
2022/08/22 13:10:33;;;;;;;3.72;2.60;;;29.10;48.60;;;;;;5032881;28;20076;-64
2022/08/22 13:13:03;;;;;;;4.05;2.42;;;29.10;47.10;;;;;;5033209;28;20049;-64
2022/08/22 13:15:45;;;;;;;;;;;29.10;47.20;;;;;;5014695;28;20053;-64
2022/08/22 13:18:24;;;;;;;2.95;2.35;;;29.10;46.60;;;;;;5020687;28;19928;-65
2022/08/22 13:20:59;;;;;;;2.60;2.40;;;29.40;46.70;;;;;;5034849;28;20071;-64
2022/08/22 13:23:35;;;;;;;6.45;2.47;;;29.50;47.10;;;;;;5038355;28;20672;-65
2022/08/22 13:26:16;;;;;;;2.55;2.13;;;29.50;46.20;;;;;;5037758;28;20132;-65
2022/08/22 13:29:15;;;;;;;2.63;2.00;;;29.50;45.50;;;;;;5038426;28;20053;-64
2022/08/22 13:31:59;;;;;;;3.75;2.47;;;29.50;46.10;;;;;;5036381;28;20056;-64
2022/08/22 13:34:54;;;;;;;3.28;2.30;;;29.40;45.40;;;;;;5038009;28;20792;-64
2022/08/22 13:37:33;;;;;;;5.70;2.40;;;29.30;46.60;;;;;;5035613;28;20067;-64
2022/08/22 13:40:04;;;;;;;4.93;2.45;;;29.30;46.90;;;;;;5037911;28;20040;-64
2022/08/22 13:42:37;;;;;;;4.47;2.45;;;29.40;46.10;;;;;;5038221;28;20283;-64
2022/08/22 13:45:14;;;;;;;2.33;2.03;;;29.40;47.60;;;;;;5016873;28;20152;-64
2022/08/22 13:47:56;;;;;;;4.55;1.98;;;29.40;47.40;;;;;;5018403;28;20100;-64
2022/08/22 13:50:28;;;;;;;3.13;2.35;;;29.40;46.40;;;;;;5017750;28;20680;-64
2022/08/22 13:53:45;;;;;;;3.38;2.20;;;29.50;46.60;;;;;;5017799;28;20053;-64
2022/08/22 13:56:55;;;;;;;4.40;2.70;;;29.50;46.00;;;;;;5015996;28;20057;-64
2022/08/22 13:59:46;;;;;;;3.55;2.95;;;29.40;45.30;;;;;;5016799;28;20100;-64
2022/08/22 14:02:47;;;;;;;2.92;2.67;;;29.30;46.50;;;;;;5018223;28;20041;-64
2022/08/22 14:05:46;;;;;;;3.35;2.45;;;29.20;45.30;;;;;;5017042;28;20124;-64
2022/08/22 14:08:21;;;;;;;2.97;2.50;;;29.20;46.10;;;;;;5007821;28;20057;-64
2022/08/22 14:11:09;;;;;;;5.45;2.47;;;29.20;46.50;;;;;;5026529;28;20474;-64
2022/08/22 14:13:44;;;;;;;3.65;2.50;;;29.30;45.60;;;;;;5035471;28;20132;-63
2022/08/22 14:16:30;;;;;;;6.65;2.63;;;29.30;45.50;;;;;;5015750;28;20103;-64